• Join FlightAware (Why Join?)
  • Login
  • US Flag 
02:46PM EST


 

Airport Tracker/Info


-or-


 

Live Flight TrackerFlight Track Log ✈ N276CP ✈ 16-Jun-2013 ✈ KEWN - KPDK

Flight Track Log - Related Links

Times and Time Zones

All times are in EDT time to prevent confusion due to time zone crossing. See the N276CP flight status page for this flight to view local times or setup timezone preferences in your user account.

Time Position Orientation Groundspeed Altitude Reporting Facility
EDT Latitude Longitude Course Direction KTS MPH feet Rate Location/Type
12:03PM 35.0224 -77.3152 262° West  Level FlightAware Approximate
12:04PM 35.0171 -77.3630 262° West  Level FlightAware Approximate
12:05PM 35.0167 -77.4113 270° West  Level FlightAware Approximate
12:06PM 34.9978 -77.4497 261° West  Level FlightAware Approximate
12:07PM 34.9913 -77.4973 261° West  Level FlightAware Approximate
12:08PM 34.9847 -77.5449 261° West  Level FlightAware Approximate
12:09PM 34.9782 -77.5925 260° West  Level FlightAware Approximate
12:10PM 34.9716 -77.6401 260° West  Level FlightAware Approximate
12:11PM 34.9651 -77.6877 260° West  Level FlightAware Approximate
12:12PM 34.9585 -77.7353 260° West  Level FlightAware Approximate
12:13PM 34.9519 -77.7829 260° West  Level FlightAware Approximate
12:14PM 34.9452 -77.8305 260° West  Level FlightAware Approximate
12:15PM 34.9386 -77.8780 260° West  Level FlightAware Approximate
12:16PM 34.9319 -77.9256 260° West  Level FlightAware Approximate
12:17PM 34.9252 -77.9731 260° West  Level FlightAware Approximate
12:18PM 34.9185 -78.0206 260° West  Level FlightAware Approximate
12:19PM 34.9118 -78.0682 260° West  Level FlightAware Approximate
12:20PM 34.9050 -78.1157 260° West  Level FlightAware Approximate
12:21PM 34.8983 -78.1632 260° West  Level FlightAware Approximate
12:22PM 34.8915 -78.2107 260° West  Level FlightAware Approximate
12:23PM 34.8847 -78.2582 260° West  Level FlightAware Approximate
12:24PM 34.8779 -78.3057 260° West  Level FlightAware Approximate
12:25PM 34.8710 -78.3532 260° West  Level FlightAware Approximate
12:26PM 34.8640 -78.4006 259° West  Level FlightAware Approximate
12:27PM 34.8567 -78.4480 259° West  Level FlightAware Approximate
12:28PM 34.8494 -78.4953 259° West  Level FlightAware Approximate
12:29PM 34.8420 -78.5427 259° West  Level FlightAware Approximate
12:30PM 34.8347 -78.5900 259° West  Level FlightAware Approximate
12:31PM 34.8273 -78.6374 259° West  Level FlightAware Approximate
12:32PM 34.8199 -78.6847 259° West  Level FlightAware Approximate
12:33PM 34.8125 -78.7320 259° West  Level FlightAware Approximate
12:34PM 34.8051 -78.7793 259° West  Level FlightAware Approximate
12:35PM 34.7976 -78.8266 259° West  Level FlightAware Approximate
12:36PM 34.7902 -78.8739 259° West  Level FlightAware Approximate
12:37PM 34.7827 -78.9212 259° West  Level FlightAware Approximate
12:38PM 34.7752 -78.9685 259° West  Level FlightAware Approximate
12:39PM 34.7677 -79.0157 259° West  Level FlightAware Approximate
12:40PM 34.7602 -79.0630 259° West  Level FlightAware Approximate
12:41PM 34.7526 -79.1103 259° West  Level FlightAware Approximate
12:42PM 34.7450 -79.1575 259° West  Level FlightAware Approximate
12:43PM 34.7374 -79.2047 259° West  Level FlightAware Approximate
12:44PM 34.7298 -79.2520 259° West  Level FlightAware Approximate
12:45PM 34.7222 -79.2992 259° West  Level FlightAware Approximate
12:46PM 34.7147 -79.3464 260° West  Level FlightAware Approximate
12:47PM 34.7077 -79.3938 260° West  Level FlightAware Approximate
12:48PM 34.7006 -79.4411 260° West  Level FlightAware Approximate
12:49PM 34.6927 -79.4938 260° West  Level FlightAware Approximate
12:50PM 34.6848 -79.5466 260° West  Level FlightAware Approximate
12:51PM 34.6768 -79.5993 260° West  Level FlightAware Approximate
12:52PM 34.6689 -79.6520 260° West  Level FlightAware Approximate
12:53PM 34.6608 -79.7047 259° West  Level FlightAware Approximate
12:54PM 34.6526 -79.7574 259° West  Level FlightAware Approximate
12:54PM 34.5789 -80.0708 258° West 175 201 10,000  Level Jacksonville Center
12:55PM 34.6443 -79.8100 259° West  Level FlightAware Approximate
12:55PM 34.5697 -80.1242 258° West 189 217 10,000  Level Jacksonville Center
12:56PM 34.6361 -79.8627 259° West  Level FlightAware Approximate
12:56PM 34.5606 -80.1822 259° West 189 217 10,000  Level Jacksonville Center
12:57PM 34.6278 -79.9153 259° West  Level FlightAware Approximate
12:57PM 34.5533 -80.2406 261° West 184 212 10,000  Level Jacksonville Center
12:58PM 34.6195 -79.9679 259° West  Level FlightAware Approximate
12:58PM 34.5419 -80.2964 256° West 184 212 10,000  Level Jacksonville Center
12:59PM 34.6105 -80.0191 258° West  Level FlightAware Approximate
12:59PM 34.5347 -80.3519 261° West 179 206 10,000  Level Jacksonville Center
01:00PM 34.5256 -80.4103 259° West 185 213 10,000 60 Level Jacksonville Center
01:01PM 34.5183 -80.4683 261° West 180 207 10,200 300 Climbing Jacksonville Center
01:02PM 34.5089 -80.5167 257° West 175 201 10,700 480 Climbing Jacksonville Center
01:03PM 34.5033 -80.5644 262° West 164 189 11,200 480 Climbing Jacksonville Center
01:04PM 34.4939 -80.6153 257° West 159 183 11,700 360 Climbing Jacksonville Center
01:05PM 34.4886 -80.6606 262° West 159 183 12,000 120 Climbing Jacksonville Center
01:06PM 34.4792 -80.7214 259° West 167 192 12,000  Level Jacksonville Center
01:07PM 34.4675 -80.7769 256° West 173 199 12,000  Level Jacksonville Center
01:08PM 34.4603 -80.8378 262° West 183 211 12,000  Level Jacksonville Center
01:09PM 34.4508 -80.8958 259° West 183 211 12,000  Level Jacksonville Center
01:10PM 34.4433 -80.9539 261° West 183 211 12,000  Level Jacksonville Center
01:11PM 34.4336 -81.0144 259° West 183 211 12,000  Level Jacksonville Center
01:12PM 34.4261 -81.0675 260° West 183 211 12,000  Level Jacksonville Center
01:14PM 34.4117 -81.1558 259° West 180 207 12,000  Level Atlanta Center
01:15PM 34.4025 -81.2192 260° West 180 207 12,000  Level Atlanta Center
01:16PM 34.3936 -81.2772 260° West 174 200 12,000  Level Atlanta Center
01:17PM 34.3842 -81.3306 258° West 174 200 12,000  Level Atlanta Center
01:18PM 34.3731 -81.3886 257° West 174 200 12,000  Level Atlanta Center
01:19PM 34.3617 -81.4444 256° West 174 200 12,000  Level Atlanta Center
01:20PM 34.3544 -81.5025 261° West 174 200 12,000  Level Atlanta Center
01:21PM 34.3475 -81.5631 262° West 179 206 12,000  Level Atlanta Center
01:22PM 34.3381 -81.6161 258° West 184 212 12,000  Level Atlanta Center
01:23PM 34.3267 -81.6744 257° West 184 212 12,000  Level Atlanta Center
01:24PM 34.3194 -81.7325 261° West 184 212 12,000  Level Atlanta Center
01:25PM 34.3100 -81.7881 258° West 184 212 12,000  Level Atlanta Center
01:26PM 34.3006 -81.8461 259° West 179 206 12,000  Level Atlanta Center
01:27PM 34.2933 -81.9042 261° West 179 206 12,000  Level Atlanta Center
01:28PM 34.2836 -81.9547 257° West 179 206 12,000  Level Atlanta Center
01:29PM 34.2764 -82.0100 261° West 179 206 12,000  Level Atlanta Center
01:30PM 34.2647 -82.0683 256° West 179 206 12,000  Level Atlanta Center
01:31PM 34.2553 -82.1236 258° West 179 206 12,000  Level Atlanta Center
01:32PM 34.2456 -82.1817 259° West 179 206 12,000  Level Atlanta Center
01:33PM 34.2297 -82.2372 251° West 184 212 12,000  Level Atlanta Center
01:34PM 34.2139 -82.2931 251° West 184 212 12,000  Level Atlanta Center
01:35PM 34.2022 -82.3508 256° West 184 212 12,000  Level Atlanta Center
01:36PM 34.1883 -82.4064 253° West 184 212 12,000  Level Atlanta Center
01:37PM 34.1722 -82.4619 251° West 184 212 12,000  Level Atlanta Center
01:38PM 34.1583 -82.5175 253° West 184 212 12,000 -240 Level Atlanta Center
01:39PM 34.1444 -82.5756 254° West 184 212 11,600 -600 Descending Atlanta Center
01:40PM 34.1222 -82.6436 248° West 195 224 10,900 -660 Descending Atlanta Center
01:41PM 34.1083 -82.7042 255° West 195 224 10,300 -600 Descending Atlanta Center
01:42PM 34.0944 -82.7644 254° West 195 224 9,800 -600 Descending Atlanta Center
01:43PM 34.0783 -82.8275 253° West 190 219 9,200 -600 Descending Atlanta Center
01:44PM 34.0603 -82.8903 251° West 190 219 8,600 -600 Descending Atlanta Center
01:45PM 34.0442 -82.9483 251° West 190 219 8,000 -600 Descending Atlanta Center
01:46PM 34.0278 -83.0086 252° West 185 213 7,500 -600 Descending Atlanta Center
01:47PM 34.0136 -83.0664 254° West 190 219 6,900 -600 Descending Atlanta Center
01:48PM 33.9975 -83.1242 251° West 190 219 6,300 -480 Descending Atlanta Center
01:49PM 33.9833 -83.1844 254° West 190 219 6,000 -180 Descending Atlanta Center
01:50PM 33.9794 -83.2397 265° West 185 213 6,000  Level Atlanta Center
01:51PM 33.9736 -83.2922 262° West 179 206 6,000  Level Atlanta Center
01:53PM 33.9667 -83.4000 266° West 166 191 6,000  Level Atlanta TRACON
01:54PM 33.9667 -83.4667 270° West 166 191 6,000  Level Atlanta TRACON
01:55PM 33.9500 -83.5167 248° West 165 190 6,100  Climbing Atlanta TRACON
01:56PM 33.9500 -83.5667 270° West 166 191 6,000 -60 Descending Atlanta TRACON
01:57PM 33.9667 -83.6167 292° West 161 185 6,000  Level Atlanta TRACON
01:58PM 33.9833 -83.6833 287° West 165 190 6,000  Level Atlanta TRACON
01:59PM 33.9833 -83.7167 270° West 162 186 6,000  Level Atlanta TRACON
02:00PM 34.0000 -83.7833 287° West 166 191 6,000  Level Atlanta TRACON
02:01PM 34.0000 -83.8333 270° West 160 184 6,000  Level Atlanta TRACON
02:02PM 34.0000 -83.9000 270° West 174 200 6,000 -240 Level Atlanta TRACON
02:03PM 34.0000 -83.9500 270° West 176 203 5,500 -420 Descending Atlanta TRACON
02:04PM 34.0000 -84.0000 270° West 170 196 5,200 -1,680 Descending Atlanta TRACON
02:05PM 33.9833 -84.0500 248° West 171 197 2,400 -780 Descending Atlanta TRACON
02:06PM 33.9833 -84.1000 270° West 158 182 3,800 420 Climbing Atlanta TRACON
02:07PM 33.9833 -84.1667 270° West 159 183 3,300 -360 Descending Atlanta TRACON
02:08PM 33.9667 -84.2000 239° Southwest 141 162 3,100 -180 Descending Atlanta TRACON
02:09PM 33.9500 -84.2500 248° West 126 145 3,000 -360 Descending Atlanta TRACON
02:10PM 33.9333 -84.2833 239° Southwest 133 153 2,400 -600 Descending Atlanta TRACON
02:12PM 33.8756 -84.3020 270° West  Level Estimated
02:19PM 33.8756 -84.3020 270° West  Level Estimated
02:20PM 33.8756 -84.3020 270° West  Level Estimated